Santa Elena, Texas
Current Conditions -  °F | °C
As of 3:15 AM on Monday 20 Oct 2014 (Local Time) from KEBG Reporting Station
Clear Clear  
Wind Chill: 21°   Ceiling: Unl
Heat Index: 21°   Visibility: 10mi
Dew Point: 19°   Wind: 3mph
Humidity: 87%   Direction: 10°N
Pressure: 29.94"   Gusts: NA
Location:  26.76°N, 98.49°W
Report Text: KEBG 200815Z AUTO 01003KT 10SM CLR 21/19 A2994 RMK AO2 T02110188
Loading
Personal Weather Stations






























Interactive Weather Map
Tropical Storm Tracking
New forecast layout! Learn more

10-Day Weather Forecast

Advertisements
Track Severe Weather on mobile